createdAt,value
2022-10-04T00:01:59.211Z,99.90
2022-10-04T00:04:44.494Z,99.90
2022-10-04T00:07:14.157Z,99.90
2022-10-04T00:09:51.583Z,99.90
2022-10-04T00:12:27.387Z,99.90
2022-10-04T00:15:02.372Z,99.90
2022-10-04T00:17:36.548Z,99.90
2022-10-04T00:20:44.360Z,99.90
2022-10-04T00:23:23.387Z,99.90
2022-10-04T00:25:53.029Z,99.90
2022-10-04T00:28:20.105Z,99.90
2022-10-04T00:31:21.303Z,99.90
2022-10-04T00:34:15.098Z,99.90
2022-10-04T00:36:55.886Z,99.90
2022-10-04T00:39:34.812Z,99.90
2022-10-04T00:42:21.899Z,99.90
2022-10-04T00:45:02.411Z,99.90
2022-10-04T00:47:44.650Z,99.90
2022-10-04T00:50:39.346Z,99.90
2022-10-04T00:53:25.802Z,99.90
2022-10-04T00:56:03.227Z,99.90
2022-10-04T00:58:45.252Z,99.90
2022-10-04T01:01:12.166Z,99.90
2022-10-04T01:03:44.119Z,99.90
2022-10-04T01:06:13.684Z,99.90
2022-10-04T01:08:51.641Z,99.90
2022-10-04T01:11:27.018Z,99.90
2022-10-04T01:14:04.524Z,99.90
2022-10-04T01:16:37.664Z,99.90
2022-10-04T01:19:22.659Z,99.90
2022-10-04T01:22:41.634Z,99.90
2022-10-04T01:25:09.400Z,99.90
2022-10-04T01:27:44.404Z,99.90
2022-10-04T01:30:16.293Z,99.90
2022-10-04T01:32:45.410Z,99.90
2022-10-04T01:35:15.693Z,99.90
2022-10-04T01:37:42.760Z,99.90
2022-10-04T01:40:11.034Z,99.90
2022-10-04T01:42:51.501Z,99.90
2022-10-04T01:45:33.791Z,99.90
2022-10-04T01:48:06.752Z,99.90
2022-10-04T01:51:03.140Z,99.90
2022-10-04T01:53:34.781Z,99.90
2022-10-04T01:56:17.528Z,99.90
2022-10-04T01:58:52.307Z,99.90
2022-10-04T02:01:48.303Z,99.90
2022-10-04T02:04:29.032Z,99.90
2022-10-04T02:07:00.013Z,99.90
2022-10-04T02:09:35.793Z,99.90
2022-10-04T02:12:03.150Z,99.90
2022-10-04T02:14:39.144Z,99.90
2022-10-04T02:17:11.591Z,99.90
2022-10-04T02:19:42.496Z,99.90
2022-10-04T02:22:11.274Z,99.90
2022-10-04T02:24:46.246Z,99.90
2022-10-04T02:27:14.653Z,99.90
2022-10-04T02:29:41.876Z,99.90
2022-10-04T02:32:29.692Z,99.90
2022-10-04T02:34:57.655Z,99.90
2022-10-04T02:37:28.626Z,99.90
2022-10-04T02:40:10.785Z,99.90
2022-10-04T02:42:57.444Z,99.90
2022-10-04T02:45:55.494Z,99.90
2022-10-04T02:49:05.916Z,99.90
2022-10-04T02:51:52.773Z,99.90
2022-10-04T02:54:43.219Z,99.90
2022-10-04T02:57:22.940Z,99.90
2022-10-04T02:59:51.464Z,99.90
2022-10-04T03:02:31.030Z,99.90
2022-10-04T03:05:13.271Z,99.90
2022-10-04T03:07:40.843Z,99.90
2022-10-04T03:10:12.993Z,99.90
2022-10-04T03:12:41.404Z,99.90
2022-10-04T03:15:13.136Z,99.90
2022-10-04T03:17:44.616Z,99.90
2022-10-04T03:20:16.231Z,99.90
2022-10-04T03:22:47.158Z,99.90
2022-10-04T03:25:34.453Z,99.90
2022-10-04T03:28:03.263Z,99.90
2022-10-04T03:30:32.287Z,99.90
2022-10-04T03:33:00.011Z,99.90
2022-10-04T03:35:33.000Z,99.90
2022-10-04T03:38:03.119Z,99.90
2022-10-04T03:40:33.424Z,99.90
2022-10-04T03:43:02.434Z,99.90
2022-10-04T03:45:33.256Z,99.90
2022-10-04T03:48:07.970Z,99.90
2022-10-04T03:50:46.945Z,99.90
2022-10-04T03:53:35.767Z,99.90
2022-10-04T03:56:11.522Z,99.90
2022-10-04T03:58:38.828Z,99.90
2022-10-04T04:01:40.447Z,99.90
2022-10-04T04:04:23.397Z,99.90
2022-10-04T04:06:50.606Z,99.90
2022-10-04T04:09:46.425Z,99.90
2022-10-04T04:12:39.550Z,99.90
2022-10-04T04:15:17.256Z,99.90
2022-10-04T04:18:19.293Z,99.90
2022-10-04T04:20:47.889Z,99.90
2022-10-04T04:23:14.678Z,99.90
2022-10-04T04:25:55.400Z,99.90
2022-10-04T04:28:36.597Z,99.90
2022-10-04T04:31:21.299Z,99.90
2022-10-04T04:34:00.499Z,99.90
2022-10-04T04:36:32.902Z,99.90
2022-10-04T04:39:34.397Z,99.90
2022-10-04T04:42:18.954Z,99.90
2022-10-04T04:45:19.192Z,99.90
2022-10-04T04:47:50.830Z,99.90
2022-10-04T04:50:31.492Z,99.90
2022-10-04T04:53:23.549Z,99.90
2022-10-04T04:56:03.805Z,99.90
2022-10-04T04:58:37.330Z,99.90
2022-10-04T05:01:41.974Z,99.90
2022-10-04T05:04:08.909Z,99.90
2022-10-04T05:06:39.052Z,99.90
2022-10-04T05:09:22.131Z,99.90
2022-10-04T05:11:51.438Z,99.90
2022-10-04T05:14:19.589Z,99.90
2022-10-04T05:16:54.031Z,99.90
2022-10-04T05:19:36.736Z,99.90
2022-10-04T05:22:12.858Z,99.90
2022-10-04T05:24:44.144Z,99.90
2022-10-04T05:27:37.449Z,99.90
2022-10-04T05:30:29.512Z,99.90
2022-10-04T05:33:14.639Z,99.90
2022-10-04T05:36:10.774Z,99.90
2022-10-04T05:38:54.053Z,99.90
2022-10-04T05:41:33.610Z,99.90
2022-10-04T05:44:02.408Z,99.90
2022-10-04T05:46:34.496Z,99.90
2022-10-04T05:49:19.481Z,99.90
2022-10-04T05:52:00.944Z,99.90
2022-10-04T05:54:33.259Z,99.90
2022-10-04T05:57:25.605Z,99.90
2022-10-04T06:00:17.688Z,99.90
2022-10-04T06:03:13.797Z,99.90
2022-10-04T06:06:00.912Z,99.90
2022-10-04T06:09:08.137Z,99.90
2022-10-04T06:12:06.078Z,99.90
2022-10-04T06:15:27.905Z,99.90
2022-10-04T06:18:47.879Z,99.90
2022-10-04T06:21:27.966Z,99.90
2022-10-04T06:24:22.024Z,99.90
2022-10-04T06:27:32.731Z,99.90
2022-10-04T06:30:34.915Z,99.90
2022-10-04T06:33:29.398Z,99.90
2022-10-04T06:36:52.701Z,99.90
2022-10-04T06:39:54.507Z,99.90
2022-10-04T06:42:43.644Z,99.90
2022-10-04T06:45:49.220Z,99.90
2022-10-04T06:48:56.527Z,99.90
2022-10-04T06:51:45.133Z,99.90
2022-10-04T06:54:55.296Z,99.90
2022-10-04T06:58:00.705Z,99.90
2022-10-04T07:00:37.920Z,99.90
2022-10-04T07:03:56.192Z,99.90
2022-10-04T07:06:33.762Z,99.90
2022-10-04T07:09:07.854Z,99.90
2022-10-04T07:12:08.365Z,99.90
2022-10-04T07:14:46.723Z,99.90
2022-10-04T07:17:31.601Z,99.90
2022-10-04T07:20:01.553Z,99.90
2022-10-04T07:22:35.640Z,99.90
2022-10-04T07:25:53.717Z,99.90
2022-10-04T07:28:49.587Z,99.90
2022-10-04T07:31:28.612Z,99.90
2022-10-04T07:34:03.239Z,99.90
2022-10-04T07:36:56.570Z,99.90
2022-10-04T07:39:59.482Z,99.90
2022-10-04T07:42:51.849Z,99.90
2022-10-04T07:45:32.679Z,99.90
2022-10-04T07:48:23.888Z,99.90
2022-10-04T07:51:15.646Z,99.90
2022-10-04T07:53:57.872Z,99.90
2022-10-04T07:56:46.142Z,99.90
2022-10-04T07:59:40.531Z,99.90
2022-10-04T08:02:47.829Z,99.90
2022-10-04T08:05:21.816Z,99.90
2022-10-04T08:08:18.073Z,99.90
2022-10-04T08:11:22.713Z,99.90
2022-10-04T08:14:06.974Z,99.90
2022-10-04T08:16:53.343Z,99.90
2022-10-04T08:19:49.803Z,99.90
2022-10-04T08:22:23.002Z,99.90
2022-10-04T08:25:18.207Z,99.90
2022-10-04T08:28:38.220Z,99.90
2022-10-04T08:31:27.982Z,99.90
2022-10-04T08:34:03.360Z,99.90
2022-10-04T08:37:05.931Z,99.90
2022-10-04T08:39:47.621Z,99.90
2022-10-04T08:42:54.775Z,99.90
2022-10-04T08:45:47.867Z,99.90
2022-10-04T08:48:46.226Z,99.90
2022-10-04T08:51:43.556Z,99.90
2022-10-04T08:54:44.217Z,99.90
2022-10-04T08:57:54.814Z,99.90
2022-10-04T09:00:57.490Z,99.90
2022-10-04T09:03:42.571Z,99.90
2022-10-04T09:06:42.772Z,99.90
2022-10-04T09:09:56.395Z,99.90
2022-10-04T09:13:01.455Z,99.90
2022-10-04T09:15:53.754Z,99.90
2022-10-04T09:18:46.690Z,99.90
2022-10-04T09:21:37.525Z,99.90
2022-10-04T09:24:34.683Z,99.90
2022-10-04T09:27:54.031Z,99.90
2022-10-04T09:30:34.202Z,99.90
2022-10-04T09:33:53.208Z,99.90
2022-10-04T09:37:16.715Z,99.90
2022-10-04T09:40:36.788Z,99.90
2022-10-04T09:43:56.051Z,99.90
2022-10-04T09:46:56.734Z,99.90
2022-10-04T09:50:18.741Z,99.90
2022-10-04T09:52:59.011Z,99.90
2022-10-04T09:55:56.488Z,99.90
2022-10-04T09:59:02.419Z,99.90
2022-10-04T10:01:49.949Z,99.90
2022-10-04T10:04:43.777Z,99.90
2022-10-04T10:07:52.999Z,99.90
2022-10-04T10:11:12.678Z,99.90
2022-10-04T10:14:21.908Z,99.90
2022-10-04T10:17:37.875Z,99.90
2022-10-04T10:20:56.088Z,99.90
2022-10-04T10:23:51.386Z,99.90
2022-10-04T10:26:44.294Z,99.90
2022-10-04T10:30:04.535Z,99.90
2022-10-04T10:33:11.877Z,99.90
2022-10-04T10:36:36.119Z,99.90
2022-10-04T10:39:12.052Z,99.90
2022-10-04T10:42:17.752Z,99.90
2022-10-04T10:45:36.439Z,99.90
2022-10-04T10:48:26.293Z,99.90
2022-10-04T10:51:34.483Z,99.90
2022-10-04T10:54:38.586Z,99.90
2022-10-04T10:57:42.840Z,99.90
2022-10-04T11:00:33.614Z,99.90
2022-10-04T11:03:24.657Z,99.90
2022-10-04T11:06:15.571Z,99.90
2022-10-04T11:09:33.413Z,99.90
2022-10-04T11:12:33.753Z,99.90
2022-10-04T11:15:51.663Z,99.90
2022-10-04T11:18:33.995Z,99.90
2022-10-04T11:21:59.741Z,99.90
2022-10-04T11:24:46.857Z,99.90
2022-10-04T11:27:55.459Z,99.50
2022-10-04T11:30:39.032Z,99.20
2022-10-04T11:33:45.135Z,99.90
2022-10-04T11:36:44.089Z,99.00
2022-10-04T11:39:53.996Z,98.70
2022-10-04T11:43:01.736Z,98.50
2022-10-04T11:46:11.600Z,98.30
2022-10-04T11:48:55.345Z,98.60
2022-10-04T11:52:04.618Z,99.20
2022-10-04T11:55:20.461Z,98.90
2022-10-04T12:03:22.777Z,96.50
2022-10-04T12:06:14.824Z,97.10
2022-10-04T12:09:05.727Z,98.40
2022-10-04T12:12:34.621Z,97.30
2022-10-04T12:15:53.790Z,96.20
2022-10-04T12:18:56.189Z,95.80
2022-10-04T12:22:02.398Z,96.90
2022-10-04T12:25:00.666Z,96.50
2022-10-04T12:27:59.795Z,96.20
2022-10-04T12:31:05.350Z,96.40
2022-10-04T12:34:00.100Z,95.00
2022-10-04T12:36:52.837Z,96.00
2022-10-04T12:39:34.675Z,96.30
2022-10-04T12:42:32.523Z,95.70
2022-10-04T12:45:20.103Z,94.60
2022-10-04T12:48:06.120Z,96.20
2022-10-04T12:51:22.199Z,94.40
2022-10-04T12:54:17.470Z,94.50
2022-10-04T12:57:25.534Z,94.60
2022-10-04T13:00:20.237Z,94.00
2022-10-04T13:03:29.628Z,94.70
2022-10-04T13:06:19.487Z,93.60
2022-10-04T13:09:14.035Z,94.60
2022-10-04T13:12:14.856Z,93.90
2022-10-04T13:15:00.735Z,93.60
2022-10-04T13:18:24.405Z,94.00
2022-10-04T13:21:16.627Z,94.40
2022-10-04T13:24:55.095Z,94.40
2022-10-04T13:27:57.047Z,94.10
2022-10-04T13:30:37.639Z,94.60
2022-10-04T13:33:24.531Z,95.20
2022-10-04T13:36:06.408Z,94.40
2022-10-04T13:38:43.181Z,94.90
2022-10-04T13:41:44.114Z,94.00
2022-10-04T13:44:33.364Z,95.10
2022-10-04T13:47:27.708Z,95.20
2022-10-04T13:50:17.482Z,94.00
2022-10-04T13:53:36.376Z,93.80
2022-10-04T13:56:57.626Z,93.30
2022-10-04T13:59:44.850Z,94.70
2022-10-04T14:02:57.579Z,93.80
2022-10-04T14:06:08.069Z,93.80
2022-10-04T14:09:06.929Z,93.50
2022-10-04T14:11:51.719Z,93.80
2022-10-04T14:14:40.380Z,94.80
2022-10-04T14:17:42.102Z,95.20
2022-10-04T14:21:18.150Z,93.90
2022-10-04T14:24:07.796Z,93.70
2022-10-04T14:27:01.966Z,94.60
2022-10-04T14:30:23.128Z,94.80
2022-10-04T14:33:31.187Z,93.20
2022-10-04T14:36:41.822Z,94.20
2022-10-04T14:39:47.505Z,94.30
2022-10-04T14:42:47.102Z,94.00
2022-10-04T14:45:32.859Z,94.70
2022-10-04T14:48:55.739Z,95.20
2022-10-04T14:51:52.111Z,93.70
2022-10-04T14:54:41.491Z,94.00
2022-10-04T14:57:42.665Z,94.20
2022-10-04T15:00:23.593Z,93.50
2022-10-04T15:03:19.540Z,93.80
2022-10-04T15:05:53.041Z,94.20
2022-10-04T15:08:46.847Z,94.10
2022-10-04T15:11:34.544Z,94.00
2022-10-04T15:14:37.877Z,94.80
2022-10-04T15:17:11.250Z,94.90
2022-10-04T15:20:03.405Z,95.00
2022-10-04T15:22:59.649Z,93.70
2022-10-04T15:25:43.448Z,92.90
2022-10-04T15:28:37.467Z,92.90
2022-10-04T15:31:32.468Z,93.50
2022-10-04T15:34:54.702Z,92.70
2022-10-04T15:37:59.059Z,92.20
2022-10-04T15:40:38.282Z,92.30
2022-10-04T15:43:30.421Z,93.00
2022-10-04T15:46:39.561Z,92.60
2022-10-04T15:49:58.944Z,93.50
2022-10-04T15:53:44.859Z,93.00
2022-10-04T15:56:55.941Z,92.80
2022-10-04T15:59:36.456Z,93.80
2022-10-04T16:02:37.535Z,94.50
2022-10-04T16:05:39.326Z,94.20
2022-10-04T16:08:28.897Z,94.40
2022-10-04T16:12:03.503Z,95.00
2022-10-04T16:27:48.348Z,97.00
2022-10-04T16:30:28.872Z,96.80
2022-10-04T16:33:12.304Z,97.20
2022-10-04T16:36:18.954Z,96.90
2022-10-04T16:39:11.722Z,96.40
2022-10-04T16:41:57.849Z,97.10
2022-10-04T16:44:40.643Z,97.10
2022-10-04T16:48:05.122Z,96.70
2022-10-04T16:51:06.295Z,96.50
2022-10-04T16:54:10.130Z,96.70
2022-10-04T16:56:53.911Z,96.80
2022-10-04T16:59:39.491Z,97.10
2022-10-04T17:03:02.587Z,96.90
2022-10-04T17:05:53.153Z,97.00
2022-10-04T17:08:45.772Z,97.50
2022-10-04T17:12:00.130Z,97.70
2022-10-04T17:15:06.879Z,97.70
2022-10-04T17:17:39.589Z,97.90
2022-10-04T17:20:42.851Z,98.30
2022-10-04T17:23:41.083Z,98.30
2022-10-04T17:27:05.632Z,98.50
2022-10-04T17:29:38.746Z,98.70
2022-10-04T17:32:25.831Z,99.10
2022-10-04T17:35:46.003Z,99.00
2022-10-04T17:38:31.009Z,99.50
2022-10-04T17:41:33.592Z,99.70
2022-10-04T17:44:27.745Z,99.90
2022-10-04T17:47:27.030Z,99.90
2022-10-04T17:50:34.099Z,99.90
2022-10-04T17:53:33.898Z,99.90
2022-10-04T17:56:04.872Z,99.90
2022-10-04T17:58:56.088Z,99.90
2022-10-04T18:01:38.826Z,99.90
2022-10-04T18:04:30.372Z,99.90
2022-10-04T18:07:23.075Z,99.90
2022-10-04T18:09:56.110Z,99.90
2022-10-04T18:12:58.949Z,99.90
2022-10-04T18:15:47.620Z,99.90
2022-10-04T18:18:21.126Z,99.90
2022-10-04T18:21:02.259Z,99.90
2022-10-04T18:23:35.867Z,99.90
2022-10-04T18:26:17.546Z,99.90
2022-10-04T18:28:47.560Z,99.90
2022-10-04T18:31:26.655Z,99.90
2022-10-04T18:33:57.469Z,99.90
2022-10-04T18:36:33.371Z,99.90
2022-10-04T18:39:14.557Z,99.90
2022-10-04T18:42:14.649Z,99.90
2022-10-04T18:44:49.179Z,99.90
2022-10-04T18:47:38.267Z,99.90
2022-10-04T18:50:21.103Z,99.90
2022-10-04T18:53:16.986Z,99.90
2022-10-04T18:56:07.735Z,99.90
2022-10-04T18:59:35.596Z,99.90
2022-10-04T19:02:26.400Z,99.90
2022-10-04T19:05:15.356Z,99.90
2022-10-04T19:07:57.410Z,99.90
2022-10-04T19:10:33.104Z,99.90
2022-10-04T19:13:23.956Z,99.90
2022-10-04T19:16:02.458Z,99.90
2022-10-04T19:18:51.058Z,99.90
2022-10-04T19:22:11.022Z,99.90
2022-10-04T19:24:49.899Z,99.90
2022-10-04T19:27:36.783Z,99.90
2022-10-04T19:30:20.625Z,99.90
2022-10-04T19:33:13.784Z,99.90
2022-10-04T19:36:16.257Z,99.90
2022-10-04T19:39:15.899Z,99.90
2022-10-04T19:42:02.020Z,99.90
2022-10-04T19:44:52.891Z,99.90
2022-10-04T19:47:42.575Z,99.90
2022-10-04T19:50:10.273Z,99.90
2022-10-04T19:52:47.957Z,99.90
2022-10-04T19:55:53.680Z,99.90
2022-10-04T19:58:39.784Z,99.90
2022-10-04T20:01:23.098Z,99.90
2022-10-04T20:04:25.077Z,99.90
2022-10-04T20:06:58.171Z,99.90
2022-10-04T20:09:51.397Z,99.90
2022-10-04T20:13:25.207Z,99.90
2022-10-04T20:16:00.569Z,99.90
2022-10-04T20:18:33.941Z,99.90
2022-10-04T20:21:02.119Z,99.90
2022-10-04T20:23:40.507Z,99.90
2022-10-04T20:26:54.809Z,99.90
2022-10-04T20:30:01.967Z,99.90
2022-10-04T20:32:36.262Z,99.90
2022-10-04T20:35:11.715Z,99.90
2022-10-04T20:37:44.591Z,99.90
2022-10-04T20:40:24.018Z,99.90
2022-10-04T20:43:13.673Z,99.90
2022-10-04T20:45:54.290Z,99.90
2022-10-04T20:48:31.301Z,99.90
2022-10-04T20:51:09.777Z,99.90
2022-10-04T20:53:46.675Z,99.90
2022-10-04T20:56:33.452Z,99.90
2022-10-04T20:59:03.470Z,99.90
2022-10-04T21:01:37.711Z,99.90
2022-10-04T21:04:54.804Z,99.90
2022-10-04T21:07:27.003Z,99.90
2022-10-04T21:10:07.186Z,99.90
2022-10-04T21:12:40.115Z,99.90
2022-10-04T21:15:21.402Z,99.90
2022-10-04T21:18:09.467Z,99.90
2022-10-04T21:20:49.069Z,99.90
2022-10-04T21:23:34.360Z,99.90
2022-10-04T21:26:24.705Z,99.90
2022-10-04T21:28:59.662Z,99.90
2022-10-04T21:31:26.813Z,99.90
2022-10-04T21:33:53.791Z,99.90
2022-10-04T21:36:20.705Z,99.90
2022-10-04T21:38:48.078Z,99.90
2022-10-04T21:41:14.967Z,99.90
2022-10-04T21:43:41.871Z,99.90
2022-10-04T21:46:08.756Z,99.90
2022-10-04T21:48:35.609Z,99.90
2022-10-04T21:51:02.541Z,99.90
2022-10-04T21:53:31.706Z,99.90
2022-10-04T21:55:58.794Z,99.90
2022-10-04T21:58:25.663Z,99.90
2022-10-04T22:00:52.958Z,99.90
2022-10-04T22:03:19.918Z,99.90
2022-10-04T22:05:46.808Z,99.90
2022-10-04T22:08:13.678Z,99.90
2022-10-04T22:10:40.633Z,99.90
2022-10-04T22:13:07.684Z,99.90
2022-10-04T22:15:35.410Z,99.90
2022-10-04T22:18:02.199Z,99.90
2022-10-04T22:20:30.776Z,99.90
2022-10-04T22:23:01.525Z,99.90
2022-10-04T22:25:28.847Z,99.90
2022-10-04T22:27:55.823Z,99.90
2022-10-04T22:30:29.919Z,99.90
2022-10-04T22:33:01.918Z,99.90
2022-10-04T22:35:35.989Z,99.90
2022-10-04T22:38:05.922Z,99.90
2022-10-04T22:40:33.425Z,99.90
2022-10-04T22:43:01.664Z,99.90
2022-10-04T22:45:33.609Z,99.90
2022-10-04T22:48:11.525Z,99.90
2022-10-04T22:50:41.312Z,99.90
2022-10-04T22:53:21.863Z,99.90
2022-10-04T22:55:52.765Z,99.90
2022-10-04T22:58:21.034Z,99.90
2022-10-04T23:00:49.868Z,99.90
2022-10-04T23:03:27.975Z,99.90
2022-10-04T23:05:55.530Z,99.90
2022-10-04T23:08:22.502Z,99.90
2022-10-04T23:10:55.840Z,99.90
2022-10-04T23:13:25.268Z,99.90
2022-10-04T23:15:53.034Z,99.90
2022-10-04T23:18:20.264Z,99.90
2022-10-04T23:20:59.410Z,99.90
2022-10-04T23:23:30.679Z,99.90
2022-10-04T23:25:57.564Z,99.90
2022-10-04T23:28:24.887Z,99.90
2022-10-04T23:31:23.744Z,99.90
2022-10-04T23:33:56.712Z,99.90
2022-10-04T23:36:23.941Z,99.90
2022-10-04T23:39:00.207Z,99.90
2022-10-04T23:41:27.520Z,99.90
2022-10-04T23:43:54.379Z,99.90
2022-10-04T23:46:24.422Z,99.90
2022-10-04T23:48:52.535Z,99.90
2022-10-04T23:51:20.007Z,99.90
2022-10-04T23:53:50.079Z,99.90
2022-10-04T23:56:23.190Z,99.90
2022-10-04T23:58:54.909Z,99.90
